createdAt,value
2019-01-31T00:02:52.334Z,173.65
2019-01-31T00:05:59.525Z,167.87
2019-01-31T00:08:46.468Z,151.57
2019-01-31T00:12:15.163Z,168.15
2019-01-31T00:15:31.663Z,157.67
2019-01-31T00:18:26.298Z,166.30
2019-01-31T00:21:08.872Z,154.85
2019-01-31T00:24:02.039Z,139.28
2019-01-31T00:27:11.439Z,149.10
2019-01-31T00:30:11.831Z,135.35
2019-01-31T00:33:31.650Z,128.75
2019-01-31T00:36:41.966Z,137.43
2019-01-31T00:40:07.855Z,133.80
2019-01-31T00:43:30.921Z,139.22
2019-01-31T00:46:35.144Z,130.25
2019-01-31T00:49:48.956Z,147.95
2019-01-31T00:52:56.752Z,145.35
2019-01-31T00:55:56.049Z,134.87
2019-01-31T00:59:16.086Z,136.97
2019-01-31T01:02:23.322Z,147.02
2019-01-31T01:05:15.378Z,144.65
2019-01-31T01:08:06.038Z,118.75
2019-01-31T01:11:03.566Z,105.20
2019-01-31T01:13:56.956Z,116.77
2019-01-31T01:16:36.039Z,100.65
2019-01-31T01:19:35.115Z,125.70
2019-01-31T01:22:40.622Z,103.60
2019-01-31T01:25:29.655Z,129.68
2019-01-31T01:28:38.774Z,118.45
2019-01-31T01:32:10.491Z,99.30
2019-01-31T01:35:33.439Z,110.65
2019-01-31T01:38:35.178Z,117.17
2019-01-31T01:41:48.169Z,111.83
2019-01-31T01:44:54.712Z,114.22
2019-01-31T01:47:54.536Z,110.00
2019-01-31T01:51:14.283Z,106.78
2019-01-31T01:54:22.155Z,104.07
2019-01-31T01:57:25.694Z,101.47
2019-01-31T02:00:20.351Z,102.72
2019-01-31T02:03:30.818Z,110.48
2019-01-31T02:06:38.748Z,101.30
2019-01-31T02:09:49.449Z,101.87
2019-01-31T02:12:49.685Z,103.27
2019-01-31T02:15:51.405Z,101.80
2019-01-31T02:18:29.515Z,97.50
2019-01-31T02:21:52.075Z,98.47
2019-01-31T02:24:37.263Z,106.95
2019-01-31T02:27:45.196Z,88.58
2019-01-31T02:30:41.911Z,99.95
2019-01-31T02:33:38.590Z,98.97
2019-01-31T02:36:35.960Z,96.95
2019-01-31T02:39:46.709Z,105.58
2019-01-31T02:42:35.334Z,99.55
2019-01-31T02:45:37.300Z,104.10
2019-01-31T02:48:45.536Z,104.25
2019-01-31T02:51:49.124Z,107.45
2019-01-31T02:54:43.007Z,100.92
2019-01-31T02:57:56.898Z,116.08
2019-01-31T03:00:57.060Z,114.03
2019-01-31T03:04:11.006Z,114.32
2019-01-31T03:07:08.397Z,130.50
2019-01-31T03:10:23.690Z,136.82
2019-01-31T03:13:25.859Z,127.12
2019-01-31T03:16:28.688Z,123.40
2019-01-31T03:19:46.286Z,115.60
2019-01-31T03:22:59.738Z,139.25
2019-01-31T03:25:55.869Z,134.80
2019-01-31T03:29:01.333Z,133.50
2019-01-31T03:32:27.170Z,134.60
2019-01-31T03:35:59.321Z,128.85
2019-01-31T03:38:34.576Z,131.37
2019-01-31T03:41:57.840Z,145.68
2019-01-31T03:45:07.398Z,125.90
2019-01-31T03:48:13.447Z,135.97
2019-01-31T03:51:00.005Z,130.75
2019-01-31T03:54:12.887Z,156.95
2019-01-31T03:57:21.818Z,150.18
2019-01-31T04:00:18.870Z,147.75
2019-01-31T04:03:06.223Z,143.75
2019-01-31T04:06:04.544Z,118.87
2019-01-31T04:08:34.288Z,126.60
2019-01-31T04:11:04.059Z,132.72
2019-01-31T04:13:33.787Z,129.63
2019-01-31T04:16:03.479Z,146.25
2019-01-31T04:18:33.430Z,129.97
2019-01-31T04:21:03.148Z,131.67
2019-01-31T04:23:32.835Z,125.90
2019-01-31T04:26:02.674Z,149.40
2019-01-31T04:28:32.510Z,137.40
2019-01-31T04:31:02.346Z,145.80
2019-01-31T04:33:32.086Z,130.18
2019-01-31T04:36:01.807Z,124.38
2019-01-31T04:38:31.658Z,138.28
2019-01-31T04:41:01.412Z,134.05
2019-01-31T04:43:31.172Z,133.25
2019-01-31T04:46:00.905Z,141.37
2019-01-31T04:48:30.643Z,121.90
2019-01-31T04:51:02.648Z,125.05
2019-01-31T04:53:32.370Z,133.43
2019-01-31T04:56:02.102Z,133.27
2019-01-31T04:58:32.000Z,136.45
2019-01-31T05:01:02.777Z,161.03
2019-01-31T05:03:35.229Z,144.50
2019-01-31T05:06:04.978Z,142.50
2019-01-31T05:08:34.771Z,161.68
2019-01-31T05:11:04.585Z,140.32
2019-01-31T05:13:36.427Z,161.32
2019-01-31T05:16:06.289Z,168.17
2019-01-31T05:18:36.023Z,162.05
2019-01-31T05:21:05.856Z,156.82
2019-01-31T05:23:35.589Z,162.03
2019-01-31T05:26:05.537Z,146.65
2019-01-31T05:28:35.234Z,134.15
2019-01-31T05:31:05.205Z,161.45
2019-01-31T05:33:34.955Z,162.15
2019-01-31T05:36:04.660Z,142.53
2019-01-31T05:38:34.416Z,133.27
2019-01-31T05:41:04.163Z,141.37
2019-01-31T05:43:33.850Z,147.28
2019-01-31T05:46:03.633Z,138.55
2019-01-31T05:48:33.428Z,143.85
2019-01-31T05:51:03.279Z,141.37
2019-01-31T05:53:33.031Z,131.57
2019-01-31T05:56:02.751Z,135.28
2019-01-31T05:58:32.687Z,138.00
2019-01-31T06:01:02.425Z,163.50
2019-01-31T06:03:32.224Z,148.72
2019-01-31T06:06:03.526Z,146.07
2019-01-31T06:08:33.368Z,127.58
2019-01-31T06:11:07.575Z,136.97
2019-01-31T06:13:34.685Z,127.40
2019-01-31T06:16:06.745Z,125.25
2019-01-31T06:18:37.055Z,124.22
2019-01-31T06:21:07.094Z,128.90
2019-01-31T06:23:36.911Z,127.65
2019-01-31T06:26:06.878Z,111.20
2019-01-31T06:28:36.683Z,132.85
2019-01-31T06:31:09.468Z,125.95
2019-01-31T06:33:39.294Z,125.92
2019-01-31T06:36:09.096Z,123.87
2019-01-31T06:38:38.842Z,126.87
2019-01-31T06:41:18.302Z,130.67
2019-01-31T06:43:41.618Z,121.97
2019-01-31T06:46:11.465Z,125.35
2019-01-31T06:48:41.186Z,116.28
2019-01-31T06:51:10.932Z,130.30
2019-01-31T06:53:40.698Z,133.93
2019-01-31T06:56:10.414Z,120.62
2019-01-31T06:58:41.172Z,120.13
2019-01-31T07:01:11.078Z,133.57
2019-01-31T07:03:40.811Z,115.37
2019-01-31T07:06:10.660Z,135.82
2019-01-31T07:08:41.452Z,129.12
2019-01-31T07:11:11.407Z,123.58
2019-01-31T07:13:41.103Z,123.70
2019-01-31T07:16:10.796Z,136.43
2019-01-31T07:18:42.306Z,137.92
2019-01-31T07:21:12.007Z,137.05
2019-01-31T07:23:45.912Z,132.00
2019-01-31T07:26:15.443Z,136.92
2019-01-31T07:28:45.299Z,117.47
2019-01-31T07:31:15.011Z,127.17
2019-01-31T07:33:44.771Z,148.95
2019-01-31T07:36:14.582Z,128.23
2019-01-31T07:38:44.363Z,144.32
2019-01-31T07:41:14.197Z,116.10
2019-01-31T07:43:46.697Z,111.70
2019-01-31T07:46:15.571Z,94.65
2019-01-31T07:48:45.382Z,107.25
2019-01-31T07:51:15.138Z,98.60
2019-01-31T07:53:44.859Z,90.75
2019-01-31T07:56:14.719Z,108.55
2019-01-31T07:58:44.489Z,93.22
2019-01-31T08:01:14.257Z,84.77
2019-01-31T08:03:44.119Z,83.85
2019-01-31T08:06:13.905Z,65.78
2019-01-31T08:08:43.743Z,65.65
2019-01-31T08:11:15.235Z,70.62
2019-01-31T08:13:45.073Z,66.75
2019-01-31T08:16:14.793Z,67.12
2019-01-31T08:18:44.517Z,63.80
2019-01-31T08:21:14.214Z,62.20
2019-01-31T08:23:46.266Z,80.70
2019-01-31T08:26:15.985Z,68.05
2019-01-31T08:28:48.150Z,63.38
2019-01-31T08:31:17.196Z,74.25
2019-01-31T08:33:46.911Z,76.75
2019-01-31T08:36:16.861Z,74.25
2019-01-31T08:38:46.557Z,77.72
2019-01-31T08:41:16.550Z,73.67
2019-01-31T08:43:46.704Z,66.22
2019-01-31T08:46:16.699Z,77.27
2019-01-31T08:48:46.467Z,71.72
2019-01-31T08:51:16.170Z,74.07
2019-01-31T08:53:45.919Z,65.17
2019-01-31T08:56:15.757Z,63.98
2019-01-31T08:58:45.489Z,57.00
2019-01-31T09:01:15.186Z,64.50
2019-01-31T09:03:44.927Z,53.40
2019-01-31T09:06:15.082Z,48.85
2019-01-31T09:08:45.209Z,51.73
2019-01-31T09:11:15.022Z,47.62
2019-01-31T09:13:44.771Z,46.63
2019-01-31T09:16:14.679Z,52.10
2019-01-31T09:18:44.398Z,57.60
2019-01-31T09:21:35.257Z,47.83
2019-01-31T09:24:33.521Z,53.25
2019-01-31T09:27:49.940Z,53.05
2019-01-31T09:31:09.580Z,50.88
2019-01-31T09:34:08.515Z,53.90
2019-01-31T09:37:04.354Z,56.30
2019-01-31T09:40:16.465Z,52.27
2019-01-31T09:43:08.576Z,59.15
2019-01-31T09:46:07.062Z,60.45
2019-01-31T09:48:59.211Z,57.65
2019-01-31T09:52:18.933Z,59.85
2019-01-31T09:55:07.875Z,48.33
2019-01-31T09:58:10.683Z,57.15
2019-01-31T10:01:17.382Z,52.60
2019-01-31T10:04:14.782Z,50.33
2019-01-31T10:07:43.552Z,45.15
2019-01-31T10:10:22.261Z,76.65
2019-01-31T10:13:35.666Z,57.98
2019-01-31T10:16:48.741Z,56.50
2019-01-31T10:19:58.322Z,45.43
2019-01-31T10:23:02.586Z,51.85
2019-01-31T10:25:58.836Z,41.88
2019-01-31T10:28:57.474Z,57.03
2019-01-31T10:32:05.431Z,46.42
2019-01-31T10:35:09.020Z,46.05
2019-01-31T10:38:12.415Z,46.92
2019-01-31T10:41:19.816Z,42.35
2019-01-31T10:44:33.440Z,44.48
2019-01-31T10:47:53.252Z,40.92
2019-01-31T10:51:17.973Z,41.20
2019-01-31T10:54:03.788Z,45.98
2019-01-31T10:57:25.574Z,41.92
2019-01-31T11:00:31.168Z,34.18
2019-01-31T11:03:23.240Z,38.30
2019-01-31T11:06:52.201Z,38.53
2019-01-31T11:09:44.712Z,41.08
2019-01-31T11:13:13.844Z,40.05
2019-01-31T11:16:36.234Z,38.88
2019-01-31T11:20:04.975Z,35.73
2019-01-31T11:23:30.432Z,41.98
2019-01-31T11:26:22.245Z,41.88
2019-01-31T11:29:23.782Z,39.18
2019-01-31T11:32:28.090Z,43.63
2019-01-31T11:35:21.123Z,36.42
2019-01-31T11:38:12.482Z,39.23
2019-01-31T11:41:56.252Z,28.75
2019-01-31T11:45:01.540Z,40.55
2019-01-31T11:47:48.567Z,42.17
2019-01-31T11:51:10.395Z,32.78
2019-01-31T11:54:25.866Z,34.10
2019-01-31T11:57:41.219Z,32.42
2019-01-31T12:00:14.805Z,27.62
2019-01-31T12:02:54.480Z,37.93
2019-01-31T12:05:16.159Z,34.60
2019-01-31T12:07:45.984Z,34.78
2019-01-31T12:10:16.030Z,32.08
2019-01-31T12:12:45.885Z,31.82
2019-01-31T12:15:15.622Z,36.10
2019-01-31T12:17:45.310Z,35.35
2019-01-31T12:20:16.535Z,38.92
2019-01-31T12:22:46.230Z,37.78
2019-01-31T12:25:16.043Z,41.90
2019-01-31T12:27:45.853Z,36.77
2019-01-31T12:30:23.353Z,33.13
2019-01-31T12:32:55.471Z,28.57
2019-01-31T12:35:25.219Z,36.17
2019-01-31T12:37:54.988Z,33.38
2019-01-31T12:40:24.855Z,36.13
2019-01-31T12:42:54.546Z,30.72
2019-01-31T12:45:24.316Z,30.80
2019-01-31T12:47:54.037Z,26.45
2019-01-31T12:50:27.313Z,34.73
2019-01-31T12:52:57.285Z,37.17
2019-01-31T12:55:27.124Z,28.25
2019-01-31T12:57:56.861Z,28.02
2019-01-31T13:00:28.617Z,33.35
2019-01-31T13:02:58.415Z,30.55
2019-01-31T13:05:28.153Z,27.40
2019-01-31T13:07:57.891Z,31.10
2019-01-31T13:10:27.600Z,32.23
2019-01-31T13:12:58.308Z,27.73
2019-01-31T13:15:29.487Z,32.70
2019-01-31T13:17:59.406Z,32.85
2019-01-31T13:20:29.283Z,34.00
2019-01-31T13:22:59.401Z,35.85
2019-01-31T13:25:29.696Z,37.05
2019-01-31T13:27:59.614Z,35.00
2019-01-31T13:30:29.447Z,29.82
2019-01-31T13:33:01.955Z,40.35
2019-01-31T13:35:31.743Z,33.10
2019-01-31T13:38:01.487Z,31.70
2019-01-31T13:40:31.234Z,33.92
2019-01-31T13:43:01.007Z,36.17
2019-01-31T13:45:35.964Z,31.40
2019-01-31T13:48:09.257Z,32.45
2019-01-31T13:50:39.040Z,33.67
2019-01-31T13:53:09.673Z,31.93
2019-01-31T13:55:39.882Z,27.15
2019-01-31T13:58:10.408Z,33.80
2019-01-31T14:00:40.623Z,32.95
2019-01-31T14:03:10.667Z,32.88
2019-01-31T14:05:40.753Z,38.55
2019-01-31T14:08:10.610Z,31.85
2019-01-31T14:10:40.312Z,38.10
2019-01-31T14:13:11.557Z,39.92
2019-01-31T14:15:41.636Z,41.70
2019-01-31T14:18:11.437Z,44.53
2019-01-31T14:20:41.260Z,44.53
2019-01-31T14:23:10.968Z,37.42
2019-01-31T14:25:40.897Z,34.25
2019-01-31T14:28:10.628Z,38.28
2019-01-31T14:30:40.683Z,35.23
2019-01-31T14:33:29.101Z,31.10
2019-01-31T14:36:00.585Z,46.02
2019-01-31T14:38:30.423Z,32.20
2019-01-31T14:41:00.186Z,36.38
2019-01-31T14:43:29.962Z,43.90
2019-01-31T14:45:59.808Z,36.03
2019-01-31T14:48:29.566Z,36.28
2019-01-31T14:51:01.334Z,55.67
2019-01-31T14:53:31.128Z,37.75
2019-01-31T14:56:02.161Z,36.95
2019-01-31T14:58:31.917Z,38.83
2019-01-31T15:01:03.573Z,43.63
2019-01-31T15:03:33.340Z,39.63
2019-01-31T15:06:03.084Z,45.80
2019-01-31T15:08:32.881Z,39.75
2019-01-31T15:11:05.269Z,39.40
2019-01-31T15:13:35.201Z,46.13
2019-01-31T15:16:05.313Z,50.78
2019-01-31T15:18:35.020Z,42.25
2019-01-31T15:21:04.763Z,44.50
2019-01-31T15:23:34.540Z,44.25
2019-01-31T15:26:07.336Z,47.40
2019-01-31T15:28:37.043Z,46.10
2019-01-31T15:31:06.798Z,45.15
2019-01-31T15:33:40.307Z,44.45
2019-01-31T15:36:10.198Z,48.35
2019-01-31T15:38:42.836Z,47.25
2019-01-31T15:41:12.542Z,46.92
2019-01-31T15:43:42.235Z,58.80
2019-01-31T15:46:11.990Z,47.45
2019-01-31T15:48:41.694Z,49.65
2019-01-31T15:51:11.679Z,50.60
2019-01-31T15:53:41.414Z,49.95
2019-01-31T15:56:11.509Z,58.10
2019-01-31T15:58:41.442Z,50.30
2019-01-31T16:01:13.085Z,61.25
2019-01-31T16:03:42.951Z,49.33
2019-01-31T16:06:12.707Z,49.13
2019-01-31T16:08:45.438Z,57.73
2019-01-31T16:11:15.150Z,57.70
2019-01-31T16:13:44.940Z,74.58
2019-01-31T16:16:14.806Z,52.70
2019-01-31T16:18:44.662Z,50.38
2019-01-31T16:21:14.477Z,51.08
2019-01-31T16:23:44.311Z,44.30
2019-01-31T16:26:14.090Z,50.78
2019-01-31T16:28:43.770Z,54.25
2019-01-31T16:31:13.612Z,54.05
2019-01-31T16:33:43.343Z,56.18
2019-01-31T16:36:13.210Z,55.50
2019-01-31T16:38:43.226Z,64.95
2019-01-31T16:41:13.051Z,56.85
2019-01-31T16:43:42.725Z,49.27
2019-01-31T16:46:12.600Z,56.85
2019-01-31T16:48:42.367Z,59.10
2019-01-31T16:51:14.890Z,66.28
2019-01-31T16:53:44.873Z,59.18
2019-01-31T16:56:14.750Z,61.58
2019-01-31T16:58:44.507Z,65.17
2019-01-31T17:01:16.046Z,72.55
2019-01-31T17:03:45.624Z,67.72
2019-01-31T17:06:15.327Z,68.42
2019-01-31T17:08:45.159Z,74.15
2019-01-31T17:11:14.907Z,63.10
2019-01-31T17:13:44.688Z,76.65
2019-01-31T17:16:14.562Z,68.87
2019-01-31T17:18:44.407Z,86.02
2019-01-31T17:21:14.076Z,73.52
2019-01-31T17:23:43.825Z,78.70
2019-01-31T17:26:13.512Z,64.05
2019-01-31T17:28:43.274Z,72.12
2019-01-31T17:31:13.010Z,82.47
2019-01-31T17:33:42.922Z,67.50
2019-01-31T17:36:12.717Z,79.90
2019-01-31T17:38:42.580Z,87.33
2019-01-31T17:41:12.385Z,85.28
2019-01-31T17:43:42.096Z,77.30
2019-01-31T17:46:14.194Z,89.52
2019-01-31T17:48:43.978Z,83.47
2019-01-31T17:51:15.169Z,87.97
2019-01-31T17:53:44.941Z,71.22
2019-01-31T17:56:14.802Z,82.17
2019-01-31T17:58:44.565Z,72.42
2019-01-31T18:01:14.263Z,84.07
2019-01-31T18:03:44.043Z,72.70
2019-01-31T18:06:13.748Z,75.50
2019-01-31T18:08:43.508Z,85.53
2019-01-31T18:11:13.251Z,74.47
2019-01-31T18:13:43.169Z,75.92
2019-01-31T18:16:13.166Z,74.87
2019-01-31T18:18:43.018Z,87.33
2019-01-31T18:21:13.124Z,73.65
2019-01-31T18:23:43.083Z,79.80
2019-01-31T18:26:14.072Z,77.75
2019-01-31T18:28:43.876Z,71.90
2019-01-31T18:31:13.702Z,143.57
2019-01-31T18:33:43.599Z,136.10
2019-01-31T18:36:13.472Z,139.20
2019-01-31T18:38:43.261Z,93.72
2019-01-31T18:41:13.151Z,73.02
2019-01-31T18:43:42.924Z,96.32
2019-01-31T18:46:12.691Z,80.07
2019-01-31T18:48:42.479Z,85.95
2019-01-31T18:51:12.296Z,94.13
2019-01-31T18:53:42.147Z,93.78
2019-01-31T18:56:11.951Z,89.37
2019-01-31T18:58:41.760Z,77.90
2019-01-31T19:01:11.983Z,92.78
2019-01-31T19:03:41.764Z,71.80
2019-01-31T19:06:11.611Z,80.95
2019-01-31T19:08:41.480Z,86.45
2019-01-31T19:11:11.235Z,92.35
2019-01-31T19:13:41.112Z,84.22
2019-01-31T19:16:11.156Z,81.53
2019-01-31T19:18:41.036Z,75.17
2019-01-31T19:21:10.834Z,85.05
2019-01-31T19:23:40.564Z,85.03
2019-01-31T19:26:10.299Z,68.33
2019-01-31T19:28:40.184Z,84.85
2019-01-31T19:31:12.579Z,69.85
2019-01-31T19:33:42.398Z,94.22
2019-01-31T19:36:12.291Z,85.55
2019-01-31T19:38:42.120Z,84.52
2019-01-31T19:41:14.357Z,78.02
2019-01-31T19:43:44.083Z,69.50
2019-01-31T19:46:16.479Z,72.85
2019-01-31T19:48:45.461Z,78.05
2019-01-31T19:51:15.218Z,80.12
2019-01-31T19:53:45.013Z,75.32
2019-01-31T19:56:14.971Z,91.75
2019-01-31T19:58:44.766Z,81.08
2019-01-31T20:01:14.543Z,74.10
2019-01-31T20:03:44.384Z,78.12
2019-01-31T20:06:14.162Z,84.13
2019-01-31T20:08:43.948Z,79.95
2019-01-31T20:11:13.779Z,80.95
2019-01-31T20:13:44.620Z,83.95
2019-01-31T20:16:16.312Z,82.33
2019-01-31T20:18:46.094Z,82.05
2019-01-31T20:21:16.215Z,84.17
2019-01-31T20:23:46.146Z,82.78
2019-01-31T20:26:15.900Z,88.65
2019-01-31T20:28:45.702Z,92.30
2019-01-31T20:31:15.595Z,83.92
2019-01-31T20:33:45.428Z,94.35
2019-01-31T20:36:15.348Z,88.17
2019-01-31T20:38:45.104Z,86.92
2019-01-31T20:41:14.897Z,79.60
2019-01-31T20:43:45.664Z,83.22
2019-01-31T20:46:16.375Z,79.27
2019-01-31T20:48:46.152Z,76.55
2019-01-31T20:51:15.888Z,72.42
2019-01-31T20:53:45.698Z,80.50
2019-01-31T20:56:15.625Z,67.60
2019-01-31T20:58:45.758Z,72.40
2019-01-31T21:01:15.967Z,75.05
2019-01-31T21:03:45.914Z,64.40
2019-01-31T21:06:17.033Z,62.33
2019-01-31T21:08:47.200Z,67.87
2019-01-31T21:11:17.127Z,69.97
2019-01-31T21:13:50.592Z,73.72
2019-01-31T21:16:22.699Z,76.25
2019-01-31T21:18:52.567Z,68.52
2019-01-31T21:21:22.769Z,65.67
2019-01-31T21:23:52.573Z,68.10
2019-01-31T21:26:24.664Z,77.92
2019-01-31T21:28:54.266Z,61.58
2019-01-31T21:31:24.015Z,64.97
2019-01-31T21:33:53.879Z,69.97
2019-01-31T21:36:23.991Z,86.82
2019-01-31T21:38:53.814Z,75.32
2019-01-31T21:41:23.603Z,72.65
2019-01-31T21:43:53.371Z,74.67
2019-01-31T21:46:23.227Z,84.47
2019-01-31T21:48:53.081Z,75.25
2019-01-31T21:51:22.806Z,80.90
2019-01-31T21:53:55.649Z,73.80
2019-01-31T21:56:25.447Z,88.27
2019-01-31T21:58:55.243Z,72.15
2019-01-31T22:01:25.051Z,76.65
2019-01-31T22:03:54.937Z,71.00
2019-01-31T22:06:24.647Z,62.23
2019-01-31T22:08:54.412Z,82.53
2019-01-31T22:11:24.200Z,94.03
2019-01-31T22:13:57.099Z,93.05
2019-01-31T22:16:26.832Z,99.47
2019-01-31T22:18:56.552Z,73.78
2019-01-31T22:21:26.573Z,86.05
2019-01-31T22:23:56.710Z,87.62
2019-01-31T22:26:26.409Z,86.05
2019-01-31T22:28:56.135Z,86.17
2019-01-31T22:31:25.845Z,90.75
2019-01-31T22:33:55.649Z,89.22
2019-01-31T22:36:25.435Z,91.97
2019-01-31T22:38:55.120Z,79.22
2019-01-31T22:41:24.912Z,78.95
2019-01-31T22:43:55.650Z,71.82
2019-01-31T22:46:25.465Z,90.40
2019-01-31T22:48:55.218Z,89.90
2019-01-31T22:51:24.950Z,85.28
2019-01-31T22:53:57.435Z,91.37
2019-01-31T22:56:27.263Z,104.03
2019-01-31T22:58:57.047Z,85.35
2019-01-31T23:01:34.911Z,95.17
2019-01-31T23:04:09.193Z,104.90
2019-01-31T23:06:39.065Z,132.95
2019-01-31T23:09:11.855Z,130.05
2019-01-31T23:11:41.665Z,131.90
2019-01-31T23:14:11.519Z,137.57
2019-01-31T23:16:41.415Z,147.93
2019-01-31T23:19:11.347Z,143.52
2019-01-31T23:21:41.221Z,142.90
2019-01-31T23:24:11.098Z,140.03
2019-01-31T23:26:40.977Z,144.80
2019-01-31T23:29:10.743Z,133.37
2019-01-31T23:31:40.539Z,133.55
2019-01-31T23:34:10.386Z,148.62
2019-01-31T23:36:40.347Z,134.52
2019-01-31T23:39:11.764Z,134.70
2019-01-31T23:41:41.652Z,134.65
2019-01-31T23:44:11.454Z,132.45
2019-01-31T23:46:41.355Z,130.63
2019-01-31T23:49:12.784Z,134.07
2019-01-31T23:51:42.692Z,132.00
2019-01-31T23:54:12.591Z,159.32
2019-01-31T23:56:42.592Z,147.02
2019-01-31T23:59:12.358Z,142.77
